sensor_id;sensor_type;location;lat;lon;timestamp;temperature;humidity
52036;DHT22;38046;49.448;32.074;2022-10-26T00:00:27;14.70;96.60
52036;DHT22;38046;49.448;32.074;2022-10-26T00:02:53;14.70;96.60
52036;DHT22;38046;49.448;32.074;2022-10-26T00:05:19;14.70;96.80
52036;DHT22;38046;49.448;32.074;2022-10-26T00:07:47;14.70;96.80
52036;DHT22;38046;49.448;32.074;2022-10-26T00:10:12;14.70;96.80
52036;DHT22;38046;49.448;32.074;2022-10-26T00:12:39;14.70;96.90
52036;DHT22;38046;49.448;32.074;2022-10-26T00:15:06;14.70;96.90
52036;DHT22;38046;49.448;32.074;2022-10-26T00:17:32;14.70;97.00
52036;DHT22;38046;49.448;32.074;2022-10-26T00:19:58;14.70;97.10
52036;DHT22;38046;49.448;32.074;2022-10-26T00:22:25;14.70;97.10
52036;DHT22;38046;49.448;32.074;2022-10-26T00:24:51;14.70;97.20
52036;DHT22;38046;49.448;32.074;2022-10-26T00:27:17;14.70;97.30
52036;DHT22;38046;49.448;32.074;2022-10-26T00:29:43;14.60;97.30
52036;DHT22;38046;49.448;32.074;2022-10-26T00:32:08;14.70;97.30
52036;DHT22;38046;49.448;32.074;2022-10-26T00:34:34;14.70;97.40
52036;DHT22;38046;49.448;32.074;2022-10-26T00:37:00;14.70;97.30
52036;DHT22;38046;49.448;32.074;2022-10-26T00:39:25;14.70;97.40
52036;DHT22;38046;49.448;32.074;2022-10-26T00:41:51;14.60;97.40
52036;DHT22;38046;49.448;32.074;2022-10-26T00:47:32;14.60;97.10
52036;DHT22;38046;49.448;32.074;2022-10-26T00:50:02;14.60;97.10
52036;DHT22;38046;49.448;32.074;2022-10-26T00:52:28;14.60;97.60
52036;DHT22;38046;49.448;32.074;2022-10-26T00:54:55;14.60;97.60
52036;DHT22;38046;49.448;32.074;2022-10-26T00:57:21;14.60;97.70
52036;DHT22;38046;49.448;32.074;2022-10-26T00:59:48;14.60;97.80
52036;DHT22;38046;49.448;32.074;2022-10-26T01:02:15;14.60;97.70
52036;DHT22;38046;49.448;32.074;2022-10-26T01:04:41;14.60;97.80
52036;DHT22;38046;49.448;32.074;2022-10-26T01:07:07;14.60;97.80
52036;DHT22;38046;49.448;32.074;2022-10-26T01:09:34;14.60;97.80
52036;DHT22;38046;49.448;32.074;2022-10-26T01:12:00;14.60;97.80
52036;DHT22;38046;49.448;32.074;2022-10-26T01:14:27;14.60;97.70
52036;DHT22;38046;49.448;32.074;2022-10-26T01:22:31;14.60;97.50
52036;DHT22;38046;49.448;32.074;2022-10-26T01:28:01;14.60;97.60
52036;DHT22;38046;49.448;32.074;2022-10-26T01:30:38;14.70;97.80
52036;DHT22;38046;49.448;32.074;2022-10-26T01:33:31;14.60;97.60
52036;DHT22;38046;49.448;32.074;2022-10-26T01:38:51;14.60;97.60
52036;DHT22;38046;49.448;32.074;2022-10-26T01:41:52;14.60;97.70
52036;DHT22;38046;49.448;32.074;2022-10-26T01:44:20;14.60;97.30
52036;DHT22;38046;49.448;32.074;2022-10-26T01:46:49;14.50;97.80
52036;DHT22;38046;49.448;32.074;2022-10-26T01:49:20;14.50;98.00
52036;DHT22;38046;49.448;32.074;2022-10-26T01:51:48;14.50;98.10
52036;DHT22;38046;49.448;32.074;2022-10-26T01:54:14;14.50;98.20
52036;DHT22;38046;49.448;32.074;2022-10-26T01:56:42;14.40;98.30
52036;DHT22;38046;49.448;32.074;2022-10-26T02:04:59;14.40;98.30
52036;DHT22;38046;49.448;32.074;2022-10-26T02:07:35;14.40;98.80
52036;DHT22;38046;49.448;32.074;2022-10-26T02:10:26;14.40;98.90
52036;DHT22;38046;49.448;32.074;2022-10-26T02:16:16;14.30;98.90
52036;DHT22;38046;49.448;32.074;2022-10-26T02:18:59;14.30;99.20
52036;DHT22;38046;49.448;32.074;2022-10-26T02:21:46;14.40;99.10
52036;DHT22;38046;49.448;32.074;2022-10-26T02:24:14;14.30;98.80
52036;DHT22;38046;49.448;32.074;2022-10-26T02:26:44;14.30;99.30
52036;DHT22;38046;49.448;32.074;2022-10-26T02:29:15;14.30;99.40
52036;DHT22;38046;49.448;32.074;2022-10-26T02:31:41;14.30;99.40
52036;DHT22;38046;49.448;32.074;2022-10-26T02:34:10;14.30;98.70
52036;DHT22;38046;49.448;32.074;2022-10-26T02:36:41;14.30;99.30
52036;DHT22;38046;49.448;32.074;2022-10-26T02:39:09;14.30;99.40
52036;DHT22;38046;49.448;32.074;2022-10-26T02:41:36;14.30;99.50
52036;DHT22;38046;49.448;32.074;2022-10-26T02:44:26;14.30;99.60
52036;DHT22;38046;49.448;32.074;2022-10-26T02:46:54;14.20;99.10
52036;DHT22;38046;49.448;32.074;2022-10-26T02:49:20;14.30;99.70
52036;DHT22;38046;49.448;32.074;2022-10-26T02:55:16;14.30;99.80
52036;DHT22;38046;49.448;32.074;2022-10-26T02:57:46;14.20;99.30
52036;DHT22;38046;49.448;32.074;2022-10-26T03:00:16;14.30;99.70
52036;DHT22;38046;49.448;32.074;2022-10-26T03:02:43;14.20;99.80
52036;DHT22;38046;49.448;32.074;2022-10-26T03:05:33;14.30;99.90
52036;DHT22;38046;49.448;32.074;2022-10-26T03:07:58;14.30;99.80
52036;DHT22;38046;49.448;32.074;2022-10-26T03:10:25;14.20;99.80
52036;DHT22;38046;49.448;32.074;2022-10-26T03:12:50;14.30;99.90
52036;DHT22;38046;49.448;32.074;2022-10-26T03:15:17;14.20;99.90
52036;DHT22;38046;49.448;32.074;2022-10-26T03:17:42;14.20;99.90
52036;DHT22;38046;49.448;32.074;2022-10-26T03:20:09;14.30;99.90
52036;DHT22;38046;49.448;32.074;2022-10-26T03:22:34;14.30;99.90
52036;DHT22;38046;49.448;32.074;2022-10-26T03:25:00;14.20;99.90
52036;DHT22;38046;49.448;32.074;2022-10-26T03:27:26;14.20;99.90
52036;DHT22;38046;49.448;32.074;2022-10-26T03:29:52;14.20;99.90
52036;DHT22;38046;49.448;32.074;2022-10-26T03:32:18;14.20;99.90
52036;DHT22;38046;49.448;32.074;2022-10-26T03:34:44;14.20;99.90
52036;DHT22;38046;49.448;32.074;2022-10-26T03:37:10;14.20;99.80
52036;DHT22;38046;49.448;32.074;2022-10-26T03:39:35;14.20;99.80
52036;DHT22;38046;49.448;32.074;2022-10-26T03:42:01;14.20;99.70
52036;DHT22;38046;49.448;32.074;2022-10-26T03:44:27;14.20;99.70
52036;DHT22;38046;49.448;32.074;2022-10-26T03:46:52;14.20;99.70
52036;DHT22;38046;49.448;32.074;2022-10-26T03:49:18;14.20;99.70
52036;DHT22;38046;49.448;32.074;2022-10-26T03:51:44;14.20;99.60
52036;DHT22;38046;49.448;32.074;2022-10-26T03:54:10;14.20;99.60
52036;DHT22;38046;49.448;32.074;2022-10-26T03:56:35;14.20;99.60
52036;DHT22;38046;49.448;32.074;2022-10-26T03:59:01;14.20;99.40
52036;DHT22;38046;49.448;32.074;2022-10-26T04:01:27;14.20;99.30
52036;DHT22;38046;49.448;32.074;2022-10-26T04:03:52;14.20;99.30
52036;DHT22;38046;49.448;32.074;2022-10-26T04:06:18;14.20;99.20
52036;DHT22;38046;49.448;32.074;2022-10-26T04:08:43;14.20;99.30
52036;DHT22;38046;49.448;32.074;2022-10-26T04:11:09;14.20;99.30
52036;DHT22;38046;49.448;32.074;2022-10-26T04:13:35;14.20;99.30
52036;DHT22;38046;49.448;32.074;2022-10-26T04:16:00;14.20;99.30
52036;DHT22;38046;49.448;32.074;2022-10-26T04:18:26;14.20;99.30
52036;DHT22;38046;49.448;32.074;2022-10-26T04:20:52;14.20;99.20
52036;DHT22;38046;49.448;32.074;2022-10-26T04:23:18;14.20;99.10
52036;DHT22;38046;49.448;32.074;2022-10-26T04:25:44;14.10;99.10
52036;DHT22;38046;49.448;32.074;2022-10-26T04:28:11;14.10;99.00
52036;DHT22;38046;49.448;32.074;2022-10-26T04:30:37;14.10;99.20
52036;DHT22;38046;49.448;32.074;2022-10-26T04:33:03;14.10;98.80
52036;DHT22;38046;49.448;32.074;2022-10-26T04:35:30;14.00;98.50
52036;DHT22;38046;49.448;32.074;2022-10-26T04:38:00;14.00;98.40
52036;DHT22;38046;49.448;32.074;2022-10-26T04:40:31;14.00;98.50
52036;DHT22;38046;49.448;32.074;2022-10-26T04:42:57;13.90;98.30
52036;DHT22;38046;49.448;32.074;2022-10-26T04:45:23;13.90;98.40
52036;DHT22;38046;49.448;32.074;2022-10-26T04:47:59;13.90;98.10
52036;DHT22;38046;49.448;32.074;2022-10-26T04:50:25;13.80;97.70
52036;DHT22;38046;49.448;32.074;2022-10-26T04:52:52;13.80;97.80
52036;DHT22;38046;49.448;32.074;2022-10-26T04:55:18;13.80;97.80
52036;DHT22;38046;49.448;32.074;2022-10-26T04:57:44;13.80;97.80
52036;DHT22;38046;49.448;32.074;2022-10-26T05:00:11;13.70;97.80
52036;DHT22;38046;49.448;32.074;2022-10-26T05:02:36;13.70;97.80
52036;DHT22;38046;49.448;32.074;2022-10-26T05:05:02;13.70;98.10
52036;DHT22;38046;49.448;32.074;2022-10-26T05:07:28;13.70;97.80
52036;DHT22;38046;49.448;32.074;2022-10-26T05:09:53;13.70;97.70
52036;DHT22;38046;49.448;32.074;2022-10-26T05:12:19;13.70;97.80
52036;DHT22;38046;49.448;32.074;2022-10-26T05:14:45;13.60;97.80
52036;DHT22;38046;49.448;32.074;2022-10-26T05:17:10;13.70;98.20
52036;DHT22;38046;49.448;32.074;2022-10-26T05:19:36;13.70;98.20
52036;DHT22;38046;49.448;32.074;2022-10-26T05:22:02;13.70;98.00
52036;DHT22;38046;49.448;32.074;2022-10-26T05:24:27;13.70;98.00
52036;DHT22;38046;49.448;32.074;2022-10-26T05:26:53;13.70;98.20
52036;DHT22;38046;49.448;32.074;2022-10-26T05:29:18;13.70;98.20
52036;DHT22;38046;49.448;32.074;2022-10-26T05:31:44;13.70;98.20
52036;DHT22;38046;49.448;32.074;2022-10-26T05:34:10;13.70;98.30
52036;DHT22;38046;49.448;32.074;2022-10-26T05:36:35;13.70;98.30
52036;DHT22;38046;49.448;32.074;2022-10-26T05:39:01;13.70;98.30
52036;DHT22;38046;49.448;32.074;2022-10-26T05:41:26;13.70;98.30
52036;DHT22;38046;49.448;32.074;2022-10-26T05:43:52;13.70;98.40
52036;DHT22;38046;49.448;32.074;2022-10-26T05:46:18;13.70;98.40
52036;DHT22;38046;49.448;32.074;2022-10-26T05:48:43;13.80;98.60
52036;DHT22;38046;49.448;32.074;2022-10-26T05:51:09;13.80;98.70
52036;DHT22;38046;49.448;32.074;2022-10-26T05:53:37;13.80;98.70
52036;DHT22;38046;49.448;32.074;2022-10-26T05:56:09;13.80;98.60
52036;DHT22;38046;49.448;32.074;2022-10-26T05:58:38;13.90;98.50
52036;DHT22;38046;49.448;32.074;2022-10-26T06:06:44;14.00;97.90
52036;DHT22;38046;49.448;32.074;2022-10-26T06:09:12;13.90;98.00
52036;DHT22;38046;49.448;32.074;2022-10-26T06:11:38;14.00;97.90
52036;DHT22;38046;49.448;32.074;2022-10-26T06:14:04;14.00;97.70
52036;DHT22;38046;49.448;32.074;2022-10-26T06:16:41;14.00;97.70
52036;DHT22;38046;49.448;32.074;2022-10-26T06:24:27;14.10;97.40
52036;DHT22;38046;49.448;32.074;2022-10-26T06:29:31;14.10;97.60
52036;DHT22;38046;49.448;32.074;2022-10-26T06:32:01;14.10;97.50
52036;DHT22;38046;49.448;32.074;2022-10-26T06:34:32;14.20;97.60
52036;DHT22;38046;49.448;32.074;2022-10-26T06:36:58;14.20;97.50
52036;DHT22;38046;49.448;32.074;2022-10-26T06:39:26;14.20;97.20
52036;DHT22;38046;49.448;32.074;2022-10-26T06:41:56;14.30;97.60
52036;DHT22;38046;49.448;32.074;2022-10-26T06:44:22;14.30;97.40
52036;DHT22;38046;49.448;32.074;2022-10-26T06:47:19;14.30;97.20
52036;DHT22;38046;49.448;32.074;2022-10-26T06:52:37;14.40;96.60
52036;DHT22;38046;49.448;32.074;2022-10-26T06:55:04;14.40;96.70
52036;DHT22;38046;49.448;32.074;2022-10-26T06:57:34;14.40;96.70
52036;DHT22;38046;49.448;32.074;2022-10-26T07:00:13;14.40;96.60
52036;DHT22;38046;49.448;32.074;2022-10-26T07:02:41;14.50;96.60
52036;DHT22;38046;49.448;32.074;2022-10-26T07:05:07;14.50;96.70
52036;DHT22;38046;49.448;32.074;2022-10-26T07:07:40;14.50;96.70
52036;DHT22;38046;49.448;32.074;2022-10-26T07:10:07;14.60;96.70
52036;DHT22;38046;49.448;32.074;2022-10-26T07:12:33;14.60;96.70
52036;DHT22;38046;49.448;32.074;2022-10-26T07:15:00;14.70;96.60
52036;DHT22;38046;49.448;32.074;2022-10-26T07:17:25;14.80;96.40
52036;DHT22;38046;49.448;32.074;2022-10-26T07:19:53;14.80;96.20
52036;DHT22;38046;49.448;32.074;2022-10-26T07:22:19;14.90;96.00
52036;DHT22;38046;49.448;32.074;2022-10-26T07:24:45;14.90;95.80
52036;DHT22;38046;49.448;32.074;2022-10-26T07:27:15;15.00;95.60
52036;DHT22;38046;49.448;32.074;2022-10-26T07:29:40;15.10;95.20
52036;DHT22;38046;49.448;32.074;2022-10-26T07:32:06;15.10;95.00
52036;DHT22;38046;49.448;32.074;2022-10-26T07:34:32;15.10;94.70
52036;DHT22;38046;49.448;32.074;2022-10-26T07:36:58;15.20;94.30
52036;DHT22;38046;49.448;32.074;2022-10-26T07:39:25;15.10;94.10
52036;DHT22;38046;49.448;32.074;2022-10-26T07:41:51;15.20;94.00
52036;DHT22;38046;49.448;32.074;2022-10-26T07:44:17;15.20;93.80
52036;DHT22;38046;49.448;32.074;2022-10-26T07:46:43;15.20;93.80
52036;DHT22;38046;49.448;32.074;2022-10-26T07:49:09;15.20;93.70
52036;DHT22;38046;49.448;32.074;2022-10-26T07:51:35;15.20;93.50
52036;DHT22;38046;49.448;32.074;2022-10-26T07:54:01;15.30;93.40
52036;DHT22;38046;49.448;32.074;2022-10-26T07:56:26;15.30;93.10
52036;DHT22;38046;49.448;32.074;2022-10-26T07:58:53;15.30;93.10
52036;DHT22;38046;49.448;32.074;2022-10-26T08:01:19;15.30;93.00
52036;DHT22;38046;49.448;32.074;2022-10-26T08:03:45;15.30;93.00
52036;DHT22;38046;49.448;32.074;2022-10-26T08:06:10;15.40;92.90
52036;DHT22;38046;49.448;32.074;2022-10-26T08:08:36;15.40;92.50
52036;DHT22;38046;49.448;32.074;2022-10-26T08:11:02;15.40;92.40
52036;DHT22;38046;49.448;32.074;2022-10-26T08:13:28;15.40;92.00
52036;DHT22;38046;49.448;32.074;2022-10-26T08:16:03;15.40;91.80
52036;DHT22;38046;49.448;32.074;2022-10-26T08:18:29;15.40;91.70
52036;DHT22;38046;49.448;32.074;2022-10-26T08:21:04;15.40;91.50
52036;DHT22;38046;49.448;32.074;2022-10-26T08:23:31;15.40;91.40
52036;DHT22;38046;49.448;32.074;2022-10-26T08:25:58;15.30;91.40
52036;DHT22;38046;49.448;32.074;2022-10-26T08:28:24;15.30;91.40
52036;DHT22;38046;49.448;32.074;2022-10-26T08:30:50;15.30;91.30
52036;DHT22;38046;49.448;32.074;2022-10-26T08:33:15;15.30;91.50
52036;DHT22;38046;49.448;32.074;2022-10-26T08:35:41;15.30;91.50
52036;DHT22;38046;49.448;32.074;2022-10-26T08:38:06;15.20;91.40
52036;DHT22;38046;49.448;32.074;2022-10-26T08:40:38;15.30;91.40
52036;DHT22;38046;49.448;32.074;2022-10-26T08:45:43;15.30;91.20
52036;DHT22;38046;49.448;32.074;2022-10-26T08:48:19;15.30;91.30
52036;DHT22;38046;49.448;32.074;2022-10-26T08:50:54;15.30;91.10
52036;DHT22;38046;49.448;32.074;2022-10-26T08:53:39;15.30;91.20
52036;DHT22;38046;49.448;32.074;2022-10-26T08:58:58;15.40;91.10
52036;DHT22;38046;49.448;32.074;2022-10-26T09:01:25;15.40;91.20
52036;DHT22;38046;49.448;32.074;2022-10-26T09:03:50;15.40;90.90
52036;DHT22;38046;49.448;32.074;2022-10-26T09:26:30;15.40;90.50
52036;DHT22;38046;49.448;32.074;2022-10-26T09:29:01;15.40;90.50
52036;DHT22;38046;49.448;32.074;2022-10-26T09:31:29;15.30;90.50
52036;DHT22;38046;49.448;32.074;2022-10-26T09:33:54;15.40;90.70
52036;DHT22;38046;49.448;32.074;2022-10-26T09:36:21;15.40;90.80
52036;DHT22;38046;49.448;32.074;2022-10-26T09:38:57;15.40;90.70
52036;DHT22;38046;49.448;32.074;2022-10-26T09:49:11;15.60;90.60
52036;DHT22;38046;49.448;32.074;2022-10-26T09:51:39;15.70;90.60
52036;DHT22;38046;49.448;32.074;2022-10-26T09:54:14;15.70;90.50
52036;DHT22;38046;49.448;32.074;2022-10-26T09:56:43;15.70;90.40
52036;DHT22;38046;49.448;32.074;2022-10-26T09:59:10;15.80;90.30
52036;DHT22;38046;49.448;32.074;2022-10-26T10:01:36;15.80;90.30
52036;DHT22;38046;49.448;32.074;2022-10-26T10:09:27;15.80;90.20
52036;DHT22;38046;49.448;32.074;2022-10-26T10:11:58;15.80;90.10
52036;DHT22;38046;49.448;32.074;2022-10-26T10:17:03;15.80;89.60
52036;DHT22;38046;49.448;32.074;2022-10-26T10:19:32;15.80;89.70
52036;DHT22;38046;49.448;32.074;2022-10-26T10:22:16;15.70;89.80
52036;DHT22;38046;49.448;32.074;2022-10-26T10:24:54;15.70;89.80
52036;DHT22;38046;49.448;32.074;2022-10-26T10:27:21;15.70;90.00
52036;DHT22;38046;49.448;32.074;2022-10-26T10:29:57;15.70;90.10
52036;DHT22;38046;49.448;32.074;2022-10-26T10:32:28;15.60;90.00
52036;DHT22;38046;49.448;32.074;2022-10-26T10:34:58;15.60;90.10
52036;DHT22;38046;49.448;32.074;2022-10-26T10:37:32;15.60;90.20
52036;DHT22;38046;49.448;32.074;2022-10-26T10:40:27;15.60;90.20
52036;DHT22;38046;49.448;32.074;2022-10-26T10:43:01;15.60;90.30
52036;DHT22;38046;49.448;32.074;2022-10-26T10:45:29;15.60;90.50
52036;DHT22;38046;49.448;32.074;2022-10-26T10:48:13;15.60;90.70
52036;DHT22;38046;49.448;32.074;2022-10-26T10:51:06;15.70;90.50
52036;DHT22;38046;49.448;32.074;2022-10-26T10:53:50;15.70;90.30
52036;DHT22;38046;49.448;32.074;2022-10-26T11:06:59;15.80;90.10
52036;DHT22;38046;49.448;32.074;2022-10-26T11:09:29;15.80;90.10
52036;DHT22;38046;49.448;32.074;2022-10-26T11:12:51;15.80;90.00
52036;DHT22;38046;49.448;32.074;2022-10-26T11:15:13;15.80;89.50
52036;DHT22;38046;49.448;32.074;2022-10-26T11:20:21;15.80;89.60
52036;DHT22;38046;49.448;32.074;2022-10-26T11:26:00;15.70;89.40
52036;DHT22;38046;49.448;32.074;2022-10-26T11:31:19;15.70;89.00
52036;DHT22;38046;49.448;32.074;2022-10-26T11:34:00;15.70;88.90
52036;DHT22;38046;49.448;32.074;2022-10-26T11:36:30;15.70;88.70
52036;DHT22;38046;49.448;32.074;2022-10-26T11:39:19;15.70;88.40
52036;DHT22;38046;49.448;32.074;2022-10-26T11:42:00;15.70;88.30
52036;DHT22;38046;49.448;32.074;2022-10-26T11:44:36;15.60;88.00
52036;DHT22;38046;49.448;32.074;2022-10-26T11:47:16;15.60;87.90
52036;DHT22;38046;49.448;32.074;2022-10-26T11:49:56;15.60;87.90
52036;DHT22;38046;49.448;32.074;2022-10-26T11:52:32;15.60;87.80
52036;DHT22;38046;49.448;32.074;2022-10-26T11:55:01;15.60;87.90
52036;DHT22;38046;49.448;32.074;2022-10-26T11:57:31;15.70;87.90
52036;DHT22;38046;49.448;32.074;2022-10-26T12:00:01;15.70;87.70
52036;DHT22;38046;49.448;32.074;2022-10-26T12:02:27;15.80;87.50
52036;DHT22;38046;49.448;32.074;2022-10-26T12:04:58;15.90;87.20
52036;DHT22;38046;49.448;32.074;2022-10-26T12:07:52;15.90;86.50
52036;DHT22;38046;49.448;32.074;2022-10-26T12:10:28;15.90;86.10
52036;DHT22;38046;49.448;32.074;2022-10-26T12:13:18;15.90;86.10
52036;DHT22;38046;49.448;32.074;2022-10-26T12:15:49;15.90;85.90
52036;DHT22;38046;49.448;32.074;2022-10-26T12:18:19;15.90;85.80
52036;DHT22;38046;49.448;32.074;2022-10-26T12:20:58;15.90;85.60
52036;DHT22;38046;49.448;32.074;2022-10-26T12:23:32;15.80;85.50
52036;DHT22;38046;49.448;32.074;2022-10-26T12:39:40;15.80;85.80
52036;DHT22;38046;49.448;32.074;2022-10-26T12:44:35;15.80;85.90
52036;DHT22;38046;49.448;32.074;2022-10-26T12:47:02;15.80;85.80
52036;DHT22;38046;49.448;32.074;2022-10-26T12:52:51;15.80;85.90
52036;DHT22;38046;49.448;32.074;2022-10-26T13:01:09;15.70;85.80
52036;DHT22;38046;49.448;32.074;2022-10-26T13:09:16;15.70;85.90
52036;DHT22;38046;49.448;32.074;2022-10-26T13:11:55;15.70;85.90
52036;DHT22;38046;49.448;32.074;2022-10-26T13:16:55;15.70;85.90
52036;DHT22;38046;49.448;32.074;2022-10-26T13:19:38;15.70;86.10
52036;DHT22;38046;49.448;32.074;2022-10-26T13:22:04;15.80;86.10
52036;DHT22;38046;49.448;32.074;2022-10-26T13:24:31;15.80;86.10
52036;DHT22;38046;49.448;32.074;2022-10-26T13:29:32;15.80;85.80
52036;DHT22;38046;49.448;32.074;2022-10-26T13:32:18;15.80;85.90
52036;DHT22;38046;49.448;32.074;2022-10-26T13:34:45;15.80;85.90
52036;DHT22;38046;49.448;32.074;2022-10-26T13:37:26;15.90;86.10
52036;DHT22;38046;49.448;32.074;2022-10-26T13:39:54;15.90;86.00
52036;DHT22;38046;49.448;32.074;2022-10-26T13:42:26;15.90;86.00
52036;DHT22;38046;49.448;32.074;2022-10-26T13:44:53;15.90;86.00
52036;DHT22;38046;49.448;32.074;2022-10-26T13:47:31;15.90;86.00
52036;DHT22;38046;49.448;32.074;2022-10-26T13:50:06;15.90;85.90
52036;DHT22;38046;49.448;32.074;2022-10-26T13:52:35;15.90;86.10
52036;DHT22;38046;49.448;32.074;2022-10-26T13:55:06;15.80;86.40
52036;DHT22;38046;49.448;32.074;2022-10-26T13:57:42;15.80;86.50
52036;DHT22;38046;49.448;32.074;2022-10-26T14:00:18;15.80;86.70
52036;DHT22;38046;49.448;32.074;2022-10-26T14:02:44;15.70;86.90
52036;DHT22;38046;49.448;32.074;2022-10-26T14:05:12;15.70;87.30
52036;DHT22;38046;49.448;32.074;2022-10-26T14:07:47;15.70;87.50
52036;DHT22;38046;49.448;32.074;2022-10-26T14:12:48;15.60;87.80
52036;DHT22;38046;49.448;32.074;2022-10-26T14:15:15;15.60;88.10
52036;DHT22;38046;49.448;32.074;2022-10-26T14:17:40;15.60;88.30
52036;DHT22;38046;49.448;32.074;2022-10-26T14:20:16;15.60;88.50
52036;DHT22;38046;49.448;32.074;2022-10-26T14:22:43;15.50;88.60
52036;DHT22;38046;49.448;32.074;2022-10-26T14:25:26;15.60;88.80
52036;DHT22;38046;49.448;32.074;2022-10-26T14:27:52;15.60;88.80
52036;DHT22;38046;49.448;32.074;2022-10-26T14:30:20;15.50;88.90
52036;DHT22;38046;49.448;32.074;2022-10-26T14:32:46;15.50;89.00
52036;DHT22;38046;49.448;32.074;2022-10-26T14:35:13;15.50;89.10
52036;DHT22;38046;49.448;32.074;2022-10-26T14:37:54;15.50;89.40
52036;DHT22;38046;49.448;32.074;2022-10-26T14:40:24;15.50;89.50
52036;DHT22;38046;49.448;32.074;2022-10-26T14:42:56;15.50;89.70
52036;DHT22;38046;49.448;32.074;2022-10-26T14:47:49;15.50;90.10
52036;DHT22;38046;49.448;32.074;2022-10-26T14:50:23;15.50;90.20
52036;DHT22;38046;49.448;32.074;2022-10-26T14:52:54;15.50;90.50
52036;DHT22;38046;49.448;32.074;2022-10-26T14:55:21;15.50;90.40
52036;DHT22;38046;49.448;32.074;2022-10-26T14:57:51;15.50;90.40
52036;DHT22;38046;49.448;32.074;2022-10-26T15:00:24;15.50;90.50
52036;DHT22;38046;49.448;32.074;2022-10-26T15:02:54;15.40;90.40
52036;DHT22;38046;49.448;32.074;2022-10-26T15:05:27;15.40;90.60
52036;DHT22;38046;49.448;32.074;2022-10-26T15:07:54;15.30;90.70
52036;DHT22;38046;49.448;32.074;2022-10-26T15:13:22;15.30;90.80
52036;DHT22;38046;49.448;32.074;2022-10-26T15:15:50;15.30;90.90
52036;DHT22;38046;49.448;32.074;2022-10-26T15:18:23;15.30;91.10
52036;DHT22;38046;49.448;32.074;2022-10-26T15:20:51;15.30;91.10
52036;DHT22;38046;49.448;32.074;2022-10-26T15:23:18;15.30;91.10
52036;DHT22;38046;49.448;32.074;2022-10-26T15:26:02;15.30;91.20
52036;DHT22;38046;49.448;32.074;2022-10-26T15:28:31;15.30;91.10
52036;DHT22;38046;49.448;32.074;2022-10-26T15:36:26;15.20;91.10
52036;DHT22;38046;49.448;32.074;2022-10-26T15:38:52;15.20;91.30
52036;DHT22;38046;49.448;32.074;2022-10-26T15:43:46;15.10;91.40
52036;DHT22;38046;49.448;32.074;2022-10-26T15:46:12;15.10;91.50
52036;DHT22;38046;49.448;32.074;2022-10-26T15:48:38;15.10;91.60
52036;DHT22;38046;49.448;32.074;2022-10-26T15:51:11;15.00;91.70
52036;DHT22;38046;49.448;32.074;2022-10-26T15:53:37;15.00;91.80
52036;DHT22;38046;49.448;32.074;2022-10-26T15:56:07;14.90;91.90
52036;DHT22;38046;49.448;32.074;2022-10-26T15:58:36;14.90;92.10
52036;DHT22;38046;49.448;32.074;2022-10-26T16:01:02;14.90;92.20
52036;DHT22;38046;49.448;32.074;2022-10-26T16:03:28;14.90;92.40
52036;DHT22;38046;49.448;32.074;2022-10-26T16:05:58;14.90;92.50
52036;DHT22;38046;49.448;32.074;2022-10-26T16:08:26;14.90;92.50
52036;DHT22;38046;49.448;32.074;2022-10-26T16:10:53;14.90;92.60
52036;DHT22;38046;49.448;32.074;2022-10-26T16:13:19;14.90;92.60
52036;DHT22;38046;49.448;32.074;2022-10-26T16:15:45;14.90;92.70
52036;DHT22;38046;49.448;32.074;2022-10-26T16:18:11;14.90;92.70
52036;DHT22;38046;49.448;32.074;2022-10-26T16:20:37;14.90;92.70
52036;DHT22;38046;49.448;32.074;2022-10-26T16:23:03;14.90;92.70
52036;DHT22;38046;49.448;32.074;2022-10-26T16:25:40;14.90;92.70
52036;DHT22;38046;49.448;32.074;2022-10-26T16:28:06;14.90;92.60
52036;DHT22;38046;49.448;32.074;2022-10-26T16:30:31;14.90;92.60
52036;DHT22;38046;49.448;32.074;2022-10-26T16:32:57;14.90;92.70
52036;DHT22;38046;49.448;32.074;2022-10-26T16:35:23;14.90;92.70
52036;DHT22;38046;49.448;32.074;2022-10-26T16:37:48;14.80;92.70
52036;DHT22;38046;49.448;32.074;2022-10-26T16:40:14;14.80;92.80
52036;DHT22;38046;49.448;32.074;2022-10-26T16:42:40;14.80;92.70
52036;DHT22;38046;49.448;32.074;2022-10-26T16:45:12;14.80;92.80
52036;DHT22;38046;49.448;32.074;2022-10-26T16:47:38;14.80;92.90
52036;DHT22;38046;49.448;32.074;2022-10-26T16:50:08;14.80;92.80
52036;DHT22;38046;49.448;32.074;2022-10-26T16:52:35;14.80;92.80
52036;DHT22;38046;49.448;32.074;2022-10-26T16:55:02;14.80;92.80
52036;DHT22;38046;49.448;32.074;2022-10-26T16:57:28;14.80;92.90
52036;DHT22;38046;49.448;32.074;2022-10-26T16:59:53;14.80;92.90
52036;DHT22;38046;49.448;32.074;2022-10-26T17:02:19;14.80;93.00
52036;DHT22;38046;49.448;32.074;2022-10-26T17:04:45;14.80;93.00
52036;DHT22;38046;49.448;32.074;2022-10-26T17:07:11;14.70;93.00
52036;DHT22;38046;49.448;32.074;2022-10-26T17:09:36;14.80;93.10
52036;DHT22;38046;49.448;32.074;2022-10-26T17:12:02;14.70;93.10
52036;DHT22;38046;49.448;32.074;2022-10-26T17:14:28;14.80;93.40
52036;DHT22;38046;49.448;32.074;2022-10-26T17:16:54;14.70;93.00
52036;DHT22;38046;49.448;32.074;2022-10-26T17:19:19;14.70;92.90
52036;DHT22;38046;49.448;32.074;2022-10-26T17:21:45;14.70;92.90
52036;DHT22;38046;49.448;32.074;2022-10-26T17:24:11;14.70;92.90
52036;DHT22;38046;49.448;32.074;2022-10-26T17:26:38;14.60;93.00
52036;DHT22;38046;49.448;32.074;2022-10-26T17:29:04;14.60;93.10
52036;DHT22;38046;49.448;32.074;2022-10-26T17:31:30;14.60;93.10
52036;DHT22;38046;49.448;32.074;2022-10-26T17:33:56;14.60;93.10
52036;DHT22;38046;49.448;32.074;2022-10-26T17:36:22;14.60;93.10
52036;DHT22;38046;49.448;32.074;2022-10-26T17:38:52;14.60;93.20
52036;DHT22;38046;49.448;32.074;2022-10-26T17:41:19;14.60;93.20
52036;DHT22;38046;49.448;32.074;2022-10-26T17:43:47;14.60;93.30
52036;DHT22;38046;49.448;32.074;2022-10-26T17:46:18;14.60;93.40
52036;DHT22;38046;49.448;32.074;2022-10-26T17:48:45;14.60;93.30
52036;DHT22;38046;49.448;32.074;2022-10-26T17:51:17;14.60;93.30
52036;DHT22;38046;49.448;32.074;2022-10-26T17:53:47;14.60;93.30
52036;DHT22;38046;49.448;32.074;2022-10-26T17:56:21;14.60;93.30
52036;DHT22;38046;49.448;32.074;2022-10-26T17:58:53;14.60;93.30
52036;DHT22;38046;49.448;32.074;2022-10-26T18:01:19;14.60;93.20
52036;DHT22;38046;49.448;32.074;2022-10-26T18:03:45;14.50;93.20